Solberg-Hunterdon (N51)
Readington, NJ
Field Elevation: 195
Lat: 40°34.98N  Long: 74°44.19W
CTAF/Unicom Freq: 122.8000
   
     For Weather-by-Phone, call 908 534 4979
Weather Advisories
2017-03-29   10:57 Z
Altimeter 30.06" Hg
Wind 020° @ 12 KT
Gusts 18 KT
Visibility 10 SM
Ceiling OVC019
Temperature 7° C (45° F)
Dewpoint 3° C (37° F)
Relative Humidity 79%
Density Altitude --
Condensation Altitude 1,900 feet
Wind Chill: 3° C (37° F)
Wind and Runways
Indicated Runway = 04
Headwind = 11 kt
Crosswind = 4 kt
History
 
 
 
More Info
All DigiWx sites map
NOAA Forecast
 
Airport IQ 5010
(4N1) Greenwood Lake, NJ
(N40) Sky Manor, NJ
 
about DigiWx
 
FAA Disclaimer: The data displayed is for advisory purposes only and is not to be used for flight planning or operations. For official data, please call 908 534 4979 to hear the current automated AWOS voice message.
  METAR N51 291057Z AUTO 02012G18KT 10 SM OVC019 07/03 A3006